Главная страница
METAR-TAF:

METAR-TAF

Аэропорты :

Согндал, Норвегия

широта: 61-09N, долгота: 007-08E, высота над уровнем моря: 49 м

Текущие метеонаблюдения

Эта сводка был подготовлена 20 минут назад, в 10:50 UTC
Ветер 4 Узел от восточно-северо-восточный
Температура 15°C
Влажность 63%
Давление 1025 hPa
Видимость 10 км и более
Нет облачности ниже 1500 м, и нет кучево-дождевой облачности

METAR: ENSG 091050Z 07004KT CAVOK 15/08 Q1025 RMK WIND 3806FT 11006KT

Время: 13:10 (11:10 UTC)


TAF: отсутствует

Метеонаблюдения и прогнозы для более 4000 аэропортов (сводки METAR и TAF).

Имеющиеся станции представлены на карте желтыми и красными точками.

Чтобы увидеть название станции, наведите на нее мышь.

Затем щелкните, чтобы увидеть метеонаблюдения и метеопрогнозы.

Управление картой: чтобы увеличить масштаб, щелкните зеленые кнопки с черным крестиком; чтобы уменьшить масштаб, щелкните зеленую кнопку с тире; для просмотра соседних карт щелкайте зеленые стрелки.


METAR-TAF: